Date,TemperatureHighF,TemperatureAvgF,TemperatureLowF,DewpointHighF,DewpointAvgF,DewpointLowF,HumidityHigh,HumidityAvg,HumidityLow,PressureMaxIn,PressureMinIn,WindSpeedMaxMPH,WindSpeedAvgMPH,GustSpeedMaxMPH,PrecipitationSumIn
2013-2-1,33,26,18,30,12,6,87,57,42,30.53,30.18,7,1,9,2.24
2013-2-2,88,33,21,74,25,15,86,72,53,30.36,29.85,9,1,10,10.49
2013-2-3,50,39,27,33,27,22,88,64,40,30.21,30.00,13,2,16,10.49
2013-2-4,58,42,26,34,27,21,86,59,31,30.15,29.88,15,2,15,10.49
2013-2-5,64,50,37,42,35,30,76,57,35,30.06,29.91,6,1,9,10.49
2013-2-6,59,44,31,36,31,27,90,63,34,30.24,30.06,7,1,9,10.49
2013-2-7,65,50,41,46,39,32,89,67,43,30.12,29.91,9,1,10,10.49
2013-2-8,50,44,36,49,37,27,97,77,58,30.36,29.88,14,4,14,0.12
2013-2-9,57,42,34,35,28,25,74,59,35,30.39,30.12,8,2,11,0.05
2013-2-10,60,52,42,57,42,31,98,70,37,30.18,29.88,22,3,22,11.36
2013-2-11,58,52,41,57,38,25,98,63,32,30.18,29.94,8,1,8,11.36
2013-2-12,54,45,36,40,32,26,87,64,38,30.21,29.82,8,1,9,11.36
2013-2-13,45,41,34,42,37,31,98,87,73,30.03,29.71,10,1,11,0.21
2013-2-14,61,43,31,40,33,29,98,70,35,30.06,29.94,10,1,10,11.61
2013-2-15,54,41,33,38,28,18,87,61,39,30.21,30.00,13,2,13,0.12
2013-2-16,41,31,21,20,14,6,73,49,33,30.21,30.12,14,2,14,11.61
2013-2-17,50,33,18,21,15,8,72,50,30,30.30,30.18,10,1,12,0.00
2013-2-18,63,48,31,42,28,16,82,46,34,30.21,29.85,30,6,49,11.86
2013-2-19,52,44,28,46,28,14,96,59,28,30.24,29.88,25,3,25,12.02
2013-2-20,38,31,25,18,14,12,69,52,40,30.33,30.21,8,2,9,0.00
2013-2-21,52,38,26,46,25,14,97,61,31,30.27,29.85,11,2,11,0.50
2013-2-22,64,54,47,50,46,40,97,78,50,30.06,29.85,12,3,14,12.52
2013-2-23,54,44,32,41,32,26,82,64,42,30.06,29.88,8,2,9,12.52
2013-2-24,56,40,27,28,24,21,85,57,30,30.15,30.00,10,1,10,12.52
2013-2-25,68,48,30,46,31,22,76,53,28,30.03,29.56,14,3,15,12.52
2013-2-26,54,49,42,49,41,33,92,74,53,29.74,29.41,17,5,21,0.09
2013-2-27,46,42,40,34,30,26,75,63,52,29.91,29.74,10,3,12,12.61
2013-2-28,43,39,35,30,25,22,76,59,45,30.06,29.85,8,1,9,0.00